sensor_id;sensor_type;location;lat;lon;timestamp;P1;durP1;ratioP1;P2;durP2;ratioP2
20114;SDS011;10218;42.874;25.320;2022-12-18T00:01:28;7.23;;;4.80;;
20114;SDS011;10218;42.874;25.320;2022-12-18T00:03:58;8.00;;;5.20;;
20114;SDS011;10218;42.874;25.320;2022-12-18T00:06:27;8.33;;;5.93;;
20114;SDS011;10218;42.874;25.320;2022-12-18T00:08:56;6.67;;;4.70;;
20114;SDS011;10218;42.874;25.320;2022-12-18T00:11:26;5.97;;;4.63;;
20114;SDS011;10218;42.874;25.320;2022-12-18T00:13:57;7.33;;;5.43;;
20114;SDS011;10218;42.874;25.320;2022-12-18T00:16:26;8.27;;;5.80;;
20114;SDS011;10218;42.874;25.320;2022-12-18T00:18:56;7.43;;;5.53;;
20114;SDS011;10218;42.874;25.320;2022-12-18T00:21:24;6.17;;;4.70;;
20114;SDS011;10218;42.874;25.320;2022-12-18T00:23:53;7.20;;;4.57;;
20114;SDS011;10218;42.874;25.320;2022-12-18T00:26:24;7.10;;;5.10;;
20114;SDS011;10218;42.874;25.320;2022-12-18T00:28:54;6.47;;;4.60;;
20114;SDS011;10218;42.874;25.320;2022-12-18T00:31:24;7.17;;;4.87;;
20114;SDS011;10218;42.874;25.320;2022-12-18T00:33:53;5.97;;;4.33;;
20114;SDS011;10218;42.874;25.320;2022-12-18T00:36:24;7.40;;;5.17;;
20114;SDS011;10218;42.874;25.320;2022-12-18T00:38:54;9.13;;;5.70;;
20114;SDS011;10218;42.874;25.320;2022-12-18T00:41:22;8.20;;;5.47;;
20114;SDS011;10218;42.874;25.320;2022-12-18T00:44:09;7.13;;;5.00;;
20114;SDS011;10218;42.874;25.320;2022-12-18T00:46:39;6.90;;;5.40;;
20114;SDS011;10218;42.874;25.320;2022-12-18T00:49:06;8.73;;;5.93;;
20114;SDS011;10218;42.874;25.320;2022-12-18T00:51:34;7.33;;;5.27;;
20114;SDS011;10218;42.874;25.320;2022-12-18T00:54:01;7.17;;;5.33;;
20114;SDS011;10218;42.874;25.320;2022-12-18T00:56:29;7.23;;;5.33;;
20114;SDS011;10218;42.874;25.320;2022-12-18T00:58:57;10.37;;;6.20;;
20114;SDS011;10218;42.874;25.320;2022-12-18T01:01:24;7.07;;;5.07;;
20114;SDS011;10218;42.874;25.320;2022-12-18T01:03:51;7.93;;;5.53;;
20114;SDS011;10218;42.874;25.320;2022-12-18T01:06:18;8.33;;;5.90;;
20114;SDS011;10218;42.874;25.320;2022-12-18T01:08:46;6.93;;;5.30;;
20114;SDS011;10218;42.874;25.320;2022-12-18T01:11:15;8.50;;;5.33;;
20114;SDS011;10218;42.874;25.320;2022-12-18T01:13:43;9.53;;;5.73;;
20114;SDS011;10218;42.874;25.320;2022-12-18T01:16:15;11.97;;;7.13;;
20114;SDS011;10218;42.874;25.320;2022-12-18T01:18:43;17.13;;;7.77;;
20114;SDS011;10218;42.874;25.320;2022-12-18T01:21:13;11.93;;;7.03;;
20114;SDS011;10218;42.874;25.320;2022-12-18T01:23:44;11.00;;;7.40;;
20114;SDS011;10218;42.874;25.320;2022-12-18T01:26:14;12.07;;;8.00;;
20114;SDS011;10218;42.874;25.320;2022-12-18T01:28:42;13.70;;;8.77;;
20114;SDS011;10218;42.874;25.320;2022-12-18T01:31:18;12.40;;;8.37;;
20114;SDS011;10218;42.874;25.320;2022-12-18T01:33:48;12.83;;;8.33;;
20114;SDS011;10218;42.874;25.320;2022-12-18T01:36:19;16.30;;;9.73;;
20114;SDS011;10218;42.874;25.320;2022-12-18T01:38:48;11.17;;;7.73;;
20114;SDS011;10218;42.874;25.320;2022-12-18T01:41:18;12.53;;;7.60;;
20114;SDS011;10218;42.874;25.320;2022-12-18T01:43:54;11.50;;;7.30;;
20114;SDS011;10218;42.874;25.320;2022-12-18T01:46:24;14.37;;;8.13;;
20114;SDS011;10218;42.874;25.320;2022-12-18T01:48:57;11.07;;;7.53;;
20114;SDS011;10218;42.874;25.320;2022-12-18T01:51:28;15.77;;;7.90;;
20114;SDS011;10218;42.874;25.320;2022-12-18T01:53:56;14.03;;;8.60;;
20114;SDS011;10218;42.874;25.320;2022-12-18T01:56:26;13.13;;;7.13;;
20114;SDS011;10218;42.874;25.320;2022-12-18T02:01:29;12.23;;;7.20;;
20114;SDS011;10218;42.874;25.320;2022-12-18T02:04:19;11.67;;;7.83;;
20114;SDS011;10218;42.874;25.320;2022-12-18T02:07:00;11.63;;;7.03;;
20114;SDS011;10218;42.874;25.320;2022-12-18T02:09:36;12.37;;;6.90;;
20114;SDS011;10218;42.874;25.320;2022-12-18T02:12:19;10.40;;;7.17;;
20114;SDS011;10218;42.874;25.320;2022-12-18T02:17:37;12.90;;;7.37;;
20114;SDS011;10218;42.874;25.320;2022-12-18T02:23:09;10.10;;;6.53;;
20114;SDS011;10218;42.874;25.320;2022-12-18T02:28:42;10.77;;;7.30;;
20114;SDS011;10218;42.874;25.320;2022-12-18T02:31:15;13.67;;;7.80;;
20114;SDS011;10218;42.874;25.320;2022-12-18T02:33:48;11.63;;;7.60;;
20114;SDS011;10218;42.874;25.320;2022-12-18T02:36:17;11.93;;;8.20;;
20114;SDS011;10218;42.874;25.320;2022-12-18T02:38:47;12.77;;;8.10;;
20114;SDS011;10218;42.874;25.320;2022-12-18T02:41:15;15.67;;;8.87;;
20114;SDS011;10218;42.874;25.320;2022-12-18T02:43:47;11.33;;;7.67;;
20114;SDS011;10218;42.874;25.320;2022-12-18T02:46:50;12.53;;;7.90;;
20114;SDS011;10218;42.874;25.320;2022-12-18T02:56:51;16.33;;;8.97;;
20114;SDS011;10218;42.874;25.320;2022-12-18T02:59:51;14.10;;;9.40;;
20114;SDS011;10218;42.874;25.320;2022-12-18T03:02:42;15.07;;;9.43;;
20114;SDS011;10218;42.874;25.320;2022-12-18T03:07:53;13.10;;;8.83;;
20114;SDS011;10218;42.874;25.320;2022-12-18T03:11:06;15.50;;;9.30;;
20114;SDS011;10218;42.874;25.320;2022-12-18T03:16:24;16.43;;;9.63;;
20114;SDS011;10218;42.874;25.320;2022-12-18T03:18:59;13.37;;;9.50;;
20114;SDS011;10218;42.874;25.320;2022-12-18T03:21:34;13.93;;;9.03;;
20114;SDS011;10218;42.874;25.320;2022-12-18T03:24:14;15.07;;;9.37;;
20114;SDS011;10218;42.874;25.320;2022-12-18T03:26:46;16.00;;;9.30;;
20114;SDS011;10218;42.874;25.320;2022-12-18T03:32:16;15.53;;;10.13;;
20114;SDS011;10218;42.874;25.320;2022-12-18T03:34:51;17.63;;;9.53;;
20114;SDS011;10218;42.874;25.320;2022-12-18T03:37:21;15.43;;;9.10;;
20114;SDS011;10218;42.874;25.320;2022-12-18T03:39:48;16.17;;;10.33;;
20114;SDS011;10218;42.874;25.320;2022-12-18T03:42:16;15.13;;;9.93;;
20114;SDS011;10218;42.874;25.320;2022-12-18T03:45:03;21.13;;;12.90;;
20114;SDS011;10218;42.874;25.320;2022-12-18T03:47:41;16.87;;;10.67;;
20114;SDS011;10218;42.874;25.320;2022-12-18T03:53:51;24.77;;;12.27;;
20114;SDS011;10218;42.874;25.320;2022-12-18T03:56:34;19.50;;;12.67;;
20114;SDS011;10218;42.874;25.320;2022-12-18T03:59:06;21.73;;;12.27;;
20114;SDS011;10218;42.874;25.320;2022-12-18T04:01:37;19.87;;;12.57;;
20114;SDS011;10218;42.874;25.320;2022-12-18T04:04:10;18.83;;;11.03;;
20114;SDS011;10218;42.874;25.320;2022-12-18T04:06:40;19.27;;;11.50;;
20114;SDS011;10218;42.874;25.320;2022-12-18T04:09:09;21.60;;;12.00;;
20114;SDS011;10218;42.874;25.320;2022-12-18T04:11:36;20.00;;;12.27;;
20114;SDS011;10218;42.874;25.320;2022-12-18T04:14:03;28.13;;;12.97;;
20114;SDS011;10218;42.874;25.320;2022-12-18T04:16:33;24.60;;;13.70;;
20114;SDS011;10218;42.874;25.320;2022-12-18T04:19:00;23.60;;;13.40;;
20114;SDS011;10218;42.874;25.320;2022-12-18T04:21:28;21.93;;;12.70;;
20114;SDS011;10218;42.874;25.320;2022-12-18T04:23:56;25.67;;;15.30;;
20114;SDS011;10218;42.874;25.320;2022-12-18T04:26:24;25.47;;;15.17;;
20114;SDS011;10218;42.874;25.320;2022-12-18T04:28:52;25.07;;;15.67;;
20114;SDS011;10218;42.874;25.320;2022-12-18T04:31:19;21.93;;;13.13;;
20114;SDS011;10218;42.874;25.320;2022-12-18T04:33:46;23.07;;;15.00;;
20114;SDS011;10218;42.874;25.320;2022-12-18T04:36:13;23.23;;;14.10;;
20114;SDS011;10218;42.874;25.320;2022-12-18T04:38:41;25.70;;;14.47;;
20114;SDS011;10218;42.874;25.320;2022-12-18T04:41:09;22.03;;;13.47;;
20114;SDS011;10218;42.874;25.320;2022-12-18T04:43:41;24.90;;;15.03;;
20114;SDS011;10218;42.874;25.320;2022-12-18T04:46:08;22.77;;;14.60;;
20114;SDS011;10218;42.874;25.320;2022-12-18T04:48:36;27.67;;;13.73;;
20114;SDS011;10218;42.874;25.320;2022-12-18T04:51:04;24.83;;;15.37;;
20114;SDS011;10218;42.874;25.320;2022-12-18T04:53:32;27.10;;;16.30;;
20114;SDS011;10218;42.874;25.320;2022-12-18T04:56:06;28.83;;;17.00;;
20114;SDS011;10218;42.874;25.320;2022-12-18T04:58:37;31.43;;;16.27;;
20114;SDS011;10218;42.874;25.320;2022-12-18T05:01:05;31.70;;;18.07;;
20114;SDS011;10218;42.874;25.320;2022-12-18T05:03:34;29.10;;;17.63;;
20114;SDS011;10218;42.874;25.320;2022-12-18T05:06:03;29.13;;;16.40;;
20114;SDS011;10218;42.874;25.320;2022-12-18T05:08:31;28.83;;;16.80;;
20114;SDS011;10218;42.874;25.320;2022-12-18T05:10:59;27.27;;;17.17;;
20114;SDS011;10218;42.874;25.320;2022-12-18T05:13:28;38.03;;;20.67;;
20114;SDS011;10218;42.874;25.320;2022-12-18T05:15:55;41.93;;;22.13;;
20114;SDS011;10218;42.874;25.320;2022-12-18T05:18:23;24.57;;;15.13;;
20114;SDS011;10218;42.874;25.320;2022-12-18T05:20:51;31.70;;;18.97;;
20114;SDS011;10218;42.874;25.320;2022-12-18T05:23:19;68.50;;;37.03;;
20114;SDS011;10218;42.874;25.320;2022-12-18T05:25:55;31.50;;;17.97;;
20114;SDS011;10218;42.874;25.320;2022-12-18T05:28:25;37.33;;;22.53;;
20114;SDS011;10218;42.874;25.320;2022-12-18T05:30:57;53.37;;;28.00;;
20114;SDS011;10218;42.874;25.320;2022-12-18T05:33:27;58.53;;;31.67;;
20114;SDS011;10218;42.874;25.320;2022-12-18T05:35:57;74.60;;;33.50;;
20114;SDS011;10218;42.874;25.320;2022-12-18T05:38:27;114.97;;;50.50;;
20114;SDS011;10218;42.874;25.320;2022-12-18T05:40:56;96.27;;;46.10;;
20114;SDS011;10218;42.874;25.320;2022-12-18T05:43:24;56.83;;;31.00;;
20114;SDS011;10218;42.874;25.320;2022-12-18T05:45:52;36.87;;;22.43;;
20114;SDS011;10218;42.874;25.320;2022-12-18T05:48:20;37.17;;;20.90;;
20114;SDS011;10218;42.874;25.320;2022-12-18T05:50:48;33.77;;;20.43;;
20114;SDS011;10218;42.874;25.320;2022-12-18T05:53:18;34.37;;;20.30;;
20114;SDS011;10218;42.874;25.320;2022-12-18T05:55:46;32.00;;;19.40;;
20114;SDS011;10218;42.874;25.320;2022-12-18T05:58:14;31.43;;;19.23;;
20114;SDS011;10218;42.874;25.320;2022-12-18T06:00:44;35.27;;;18.87;;
20114;SDS011;10218;42.874;25.320;2022-12-18T06:03:13;34.07;;;19.37;;
20114;SDS011;10218;42.874;25.320;2022-12-18T06:05:44;31.77;;;18.07;;
20114;SDS011;10218;42.874;25.320;2022-12-18T06:08:12;28.33;;;17.80;;
20114;SDS011;10218;42.874;25.320;2022-12-18T06:10:40;31.20;;;18.17;;
20114;SDS011;10218;42.874;25.320;2022-12-18T06:13:08;28.93;;;16.47;;
20114;SDS011;10218;42.874;25.320;2022-12-18T06:15:38;27.67;;;17.20;;
20114;SDS011;10218;42.874;25.320;2022-12-18T06:18:05;24.63;;;14.23;;
20114;SDS011;10218;42.874;25.320;2022-12-18T06:20:32;25.20;;;15.77;;
20114;SDS011;10218;42.874;25.320;2022-12-18T06:23:00;30.43;;;16.80;;
20114;SDS011;10218;42.874;25.320;2022-12-18T06:25:27;27.23;;;16.33;;
20114;SDS011;10218;42.874;25.320;2022-12-18T06:27:54;27.00;;;15.40;;
20114;SDS011;10218;42.874;25.320;2022-12-18T06:30:21;26.70;;;15.97;;
20114;SDS011;10218;42.874;25.320;2022-12-18T06:32:49;31.50;;;16.53;;
20114;SDS011;10218;42.874;25.320;2022-12-18T06:35:20;27.07;;;16.20;;
20114;SDS011;10218;42.874;25.320;2022-12-18T06:37:47;30.30;;;17.93;;
20114;SDS011;10218;42.874;25.320;2022-12-18T06:40:14;32.00;;;17.53;;
20114;SDS011;10218;42.874;25.320;2022-12-18T06:42:41;31.50;;;19.03;;
20114;SDS011;10218;42.874;25.320;2022-12-18T06:45:08;26.97;;;16.00;;
20114;SDS011;10218;42.874;25.320;2022-12-18T06:47:36;27.00;;;15.73;;
20114;SDS011;10218;42.874;25.320;2022-12-18T06:50:03;30.03;;;16.77;;
20114;SDS011;10218;42.874;25.320;2022-12-18T06:52:31;31.23;;;17.93;;
20114;SDS011;10218;42.874;25.320;2022-12-18T06:54:59;26.80;;;15.70;;
20114;SDS011;10218;42.874;25.320;2022-12-18T06:57:26;28.10;;;16.57;;
20114;SDS011;10218;42.874;25.320;2022-12-18T06:59:53;25.63;;;15.87;;
20114;SDS011;10218;42.874;25.320;2022-12-18T07:02:21;28.50;;;16.57;;
20114;SDS011;10218;42.874;25.320;2022-12-18T07:04:48;27.57;;;16.53;;
20114;SDS011;10218;42.874;25.320;2022-12-18T07:07:15;29.77;;;16.43;;
20114;SDS011;10218;42.874;25.320;2022-12-18T07:09:42;33.77;;;19.93;;
20114;SDS011;10218;42.874;25.320;2022-12-18T07:12:09;42.07;;;26.40;;
20114;SDS011;10218;42.874;25.320;2022-12-18T07:14:36;62.13;;;34.10;;
20114;SDS011;10218;42.874;25.320;2022-12-18T07:17:03;44.63;;;26.63;;
20114;SDS011;10218;42.874;25.320;2022-12-18T07:19:30;47.27;;;24.70;;
20114;SDS011;10218;42.874;25.320;2022-12-18T07:21:57;85.43;;;44.73;;
20114;SDS011;10218;42.874;25.320;2022-12-18T07:24:24;60.57;;;33.63;;
20114;SDS011;10218;42.874;25.320;2022-12-18T07:26:51;65.77;;;33.90;;
20114;SDS011;10218;42.874;25.320;2022-12-18T07:29:19;43.90;;;24.67;;
20114;SDS011;10218;42.874;25.320;2022-12-18T07:31:46;35.97;;;20.67;;
20114;SDS011;10218;42.874;25.320;2022-12-18T07:34:13;26.83;;;16.63;;
20114;SDS011;10218;42.874;25.320;2022-12-18T07:36:41;27.10;;;16.07;;
20114;SDS011;10218;42.874;25.320;2022-12-18T07:39:10;35.80;;;20.73;;
20114;SDS011;10218;42.874;25.320;2022-12-18T07:41:37;39.67;;;23.43;;
20114;SDS011;10218;42.874;25.320;2022-12-18T07:44:09;35.67;;;21.60;;
20114;SDS011;10218;42.874;25.320;2022-12-18T07:46:37;42.20;;;24.87;;
20114;SDS011;10218;42.874;25.320;2022-12-18T07:49:05;29.20;;;17.00;;
20114;SDS011;10218;42.874;25.320;2022-12-18T07:51:32;31.30;;;17.73;;
20114;SDS011;10218;42.874;25.320;2022-12-18T07:53:59;32.63;;;18.43;;
20114;SDS011;10218;42.874;25.320;2022-12-18T07:56:26;31.37;;;18.30;;
20114;SDS011;10218;42.874;25.320;2022-12-18T07:58:54;32.37;;;18.40;;
20114;SDS011;10218;42.874;25.320;2022-12-18T08:01:22;32.70;;;18.33;;
20114;SDS011;10218;42.874;25.320;2022-12-18T08:03:50;25.80;;;14.10;;
20114;SDS011;10218;42.874;25.320;2022-12-18T08:06:17;29.83;;;15.07;;
20114;SDS011;10218;42.874;25.320;2022-12-18T08:08:44;29.30;;;15.77;;
20114;SDS011;10218;42.874;25.320;2022-12-18T08:11:11;27.43;;;15.80;;
20114;SDS011;10218;42.874;25.320;2022-12-18T08:13:38;25.83;;;15.40;;
20114;SDS011;10218;42.874;25.320;2022-12-18T08:16:06;27.00;;;15.53;;
20114;SDS011;10218;42.874;25.320;2022-12-18T08:18:34;25.87;;;15.13;;
20114;SDS011;10218;42.874;25.320;2022-12-18T08:21:09;24.17;;;15.10;;
20114;SDS011;10218;42.874;25.320;2022-12-18T08:23:39;24.70;;;15.47;;
20114;SDS011;10218;42.874;25.320;2022-12-18T08:26:08;25.90;;;15.13;;
20114;SDS011;10218;42.874;25.320;2022-12-18T08:28:36;25.80;;;15.40;;
20114;SDS011;10218;42.874;25.320;2022-12-18T08:31:03;24.03;;;14.20;;
20114;SDS011;10218;42.874;25.320;2022-12-18T08:33:31;22.37;;;13.60;;
20114;SDS011;10218;42.874;25.320;2022-12-18T08:35:58;22.90;;;11.97;;
20114;SDS011;10218;42.874;25.320;2022-12-18T08:38:26;21.23;;;11.77;;
20114;SDS011;10218;42.874;25.320;2022-12-18T08:40:58;22.23;;;13.27;;
20114;SDS011;10218;42.874;25.320;2022-12-18T08:43:33;20.50;;;12.80;;
20114;SDS011;10218;42.874;25.320;2022-12-18T08:46:19;20.83;;;12.17;;
20114;SDS011;10218;42.874;25.320;2022-12-18T08:48:47;22.07;;;12.77;;
20114;SDS011;10218;42.874;25.320;2022-12-18T08:51:16;19.93;;;12.53;;
20114;SDS011;10218;42.874;25.320;2022-12-18T08:53:43;21.23;;;13.27;;
20114;SDS011;10218;42.874;25.320;2022-12-18T08:56:12;17.93;;;11.17;;
20114;SDS011;10218;42.874;25.320;2022-12-18T08:58:40;19.83;;;11.93;;
20114;SDS011;10218;42.874;25.320;2022-12-18T09:01:09;19.47;;;10.60;;
20114;SDS011;10218;42.874;25.320;2022-12-18T09:03:38;18.47;;;10.83;;
20114;SDS011;10218;42.874;25.320;2022-12-18T09:06:06;20.90;;;12.47;;
20114;SDS011;10218;42.874;25.320;2022-12-18T09:08:36;23.50;;;13.07;;
20114;SDS011;10218;42.874;25.320;2022-12-18T09:11:04;19.73;;;12.03;;
20114;SDS011;10218;42.874;25.320;2022-12-18T09:13:31;19.53;;;11.37;;
20114;SDS011;10218;42.874;25.320;2022-12-18T09:15:58;20.77;;;11.93;;
20114;SDS011;10218;42.874;25.320;2022-12-18T09:18:26;18.43;;;11.07;;
20114;SDS011;10218;42.874;25.320;2022-12-18T09:20:53;17.90;;;10.40;;
20114;SDS011;10218;42.874;25.320;2022-12-18T09:23:20;17.63;;;10.23;;
20114;SDS011;10218;42.874;25.320;2022-12-18T09:25:48;17.60;;;9.40;;
20114;SDS011;10218;42.874;25.320;2022-12-18T09:28:18;16.77;;;9.27;;
20114;SDS011;10218;42.874;25.320;2022-12-18T09:30:46;16.60;;;10.17;;
20114;SDS011;10218;42.874;25.320;2022-12-18T09:33:15;19.83;;;11.77;;
20114;SDS011;10218;42.874;25.320;2022-12-18T09:35:44;16.70;;;10.63;;
20114;SDS011;10218;42.874;25.320;2022-12-18T09:38:13;21.40;;;11.33;;
20114;SDS011;10218;42.874;25.320;2022-12-18T09:40:43;17.07;;;10.93;;
20114;SDS011;10218;42.874;25.320;2022-12-18T09:43:24;20.40;;;11.63;;
20114;SDS011;10218;42.874;25.320;2022-12-18T09:46:01;18.77;;;10.80;;
20114;SDS011;10218;42.874;25.320;2022-12-18T09:48:32;19.30;;;11.10;;
20114;SDS011;10218;42.874;25.320;2022-12-18T09:51:06;19.43;;;10.97;;
20114;SDS011;10218;42.874;25.320;2022-12-18T09:53:40;16.53;;;9.93;;
20114;SDS011;10218;42.874;25.320;2022-12-18T09:56:16;17.70;;;10.50;;
20114;SDS011;10218;42.874;25.320;2022-12-18T09:58:51;17.40;;;9.47;;
20114;SDS011;10218;42.874;25.320;2022-12-18T10:01:28;19.93;;;10.83;;
20114;SDS011;10218;42.874;25.320;2022-12-18T10:04:04;18.03;;;10.30;;
20114;SDS011;10218;42.874;25.320;2022-12-18T10:06:36;19.90;;;11.20;;
20114;SDS011;10218;42.874;25.320;2022-12-18T10:09:27;17.00;;;10.73;;
20114;SDS011;10218;42.874;25.320;2022-12-18T10:20:52;14.60;;;8.43;;
20114;SDS011;10218;42.874;25.320;2022-12-18T10:23:44;15.17;;;8.77;;
20114;SDS011;10218;42.874;25.320;2022-12-18T10:26:28;11.17;;;7.17;;
20114;SDS011;10218;42.874;25.320;2022-12-18T10:28:58;14.17;;;8.00;;
20114;SDS011;10218;42.874;25.320;2022-12-18T10:31:29;12.17;;;7.43;;
20114;SDS011;10218;42.874;25.320;2022-12-18T10:33:56;12.83;;;7.43;;
20114;SDS011;10218;42.874;25.320;2022-12-18T10:36:24;10.73;;;7.10;;
20114;SDS011;10218;42.874;25.320;2022-12-18T10:38:52;11.53;;;6.97;;
20114;SDS011;10218;42.874;25.320;2022-12-18T10:43:49;11.50;;;7.40;;
20114;SDS011;10218;42.874;25.320;2022-12-18T10:46:53;12.80;;;7.50;;
20114;SDS011;10218;42.874;25.320;2022-12-18T10:49:30;11.10;;;7.07;;
20114;SDS011;10218;42.874;25.320;2022-12-18T10:52:19;11.30;;;7.13;;
20114;SDS011;10218;42.874;25.320;2022-12-18T10:54:52;15.17;;;7.43;;
20114;SDS011;10218;42.874;25.320;2022-12-18T10:59:56;12.57;;;7.53;;
20114;SDS011;10218;42.874;25.320;2022-12-18T11:02:26;10.40;;;6.70;;
20114;SDS011;10218;42.874;25.320;2022-12-18T11:04:59;12.50;;;7.20;;
20114;SDS011;10218;42.874;25.320;2022-12-18T11:07:47;12.87;;;7.50;;
20114;SDS011;10218;42.874;25.320;2022-12-18T11:10:17;12.20;;;7.10;;
20114;SDS011;10218;42.874;25.320;2022-12-18T11:12:45;10.67;;;6.90;;
20114;SDS011;10218;42.874;25.320;2022-12-18T11:15:18;10.00;;;6.53;;
20114;SDS011;10218;42.874;25.320;2022-12-18T11:17:48;14.47;;;8.40;;
20114;SDS011;10218;42.874;25.320;2022-12-18T11:20:26;13.70;;;8.33;;
20114;SDS011;10218;42.874;25.320;2022-12-18T11:23:01;14.13;;;8.03;;
20114;SDS011;10218;42.874;25.320;2022-12-18T11:25:31;12.80;;;7.40;;
20114;SDS011;10218;42.874;25.320;2022-12-18T11:28:01;10.47;;;6.30;;
20114;SDS011;10218;42.874;25.320;2022-12-18T11:30:32;11.60;;;7.50;;
20114;SDS011;10218;42.874;25.320;2022-12-18T11:33:37;13.10;;;7.87;;
20114;SDS011;10218;42.874;25.320;2022-12-18T11:35:57;10.00;;;6.63;;
20114;SDS011;10218;42.874;25.320;2022-12-18T11:38:32;11.40;;;7.03;;
20114;SDS011;10218;42.874;25.320;2022-12-18T11:44:28;12.10;;;6.13;;
20114;SDS011;10218;42.874;25.320;2022-12-18T11:47:15;10.37;;;6.33;;
20114;SDS011;10218;42.874;25.320;2022-12-18T11:49:52;9.67;;;6.00;;
20114;SDS011;10218;42.874;25.320;2022-12-18T11:52:26;10.40;;;6.53;;
20114;SDS011;10218;42.874;25.320;2022-12-18T11:54:59;9.93;;;6.67;;
20114;SDS011;10218;42.874;25.320;2022-12-18T12:00:18;19.63;;;9.80;;
20114;SDS011;10218;42.874;25.320;2022-12-18T12:21:35;20.87;;;11.90;;
20114;SDS011;10218;42.874;25.320;2022-12-18T12:27:20;10.07;;;6.43;;
20114;SDS011;10218;42.874;25.320;2022-12-18T12:30:00;15.60;;;9.10;;
20114;SDS011;10218;42.874;25.320;2022-12-18T12:38:06;11.80;;;7.10;;
20114;SDS011;10218;42.874;25.320;2022-12-18T12:40:39;12.23;;;7.83;;
20114;SDS011;10218;42.874;25.320;2022-12-18T12:43:21;12.40;;;8.27;;
20114;SDS011;10218;42.874;25.320;2022-12-18T12:48:38;14.17;;;8.70;;
20114;SDS011;10218;42.874;25.320;2022-12-18T12:51:17;14.93;;;8.70;;
20114;SDS011;10218;42.874;25.320;2022-12-18T12:53:50;16.07;;;9.60;;
20114;SDS011;10218;42.874;25.320;2022-12-18T12:56:20;16.20;;;9.40;;
20114;SDS011;10218;42.874;25.320;2022-12-18T12:58:54;14.73;;;7.90;;
20114;SDS011;10218;42.874;25.320;2022-12-18T13:01:41;15.43;;;8.80;;
20114;SDS011;10218;42.874;25.320;2022-12-18T13:04:24;16.93;;;9.67;;
20114;SDS011;10218;42.874;25.320;2022-12-18T13:07:06;17.07;;;8.63;;
20114;SDS011;10218;42.874;25.320;2022-12-18T13:15:39;22.30;;;12.00;;
20114;SDS011;10218;42.874;25.320;2022-12-18T13:25:55;20.70;;;11.53;;
20114;SDS011;10218;42.874;25.320;2022-12-18T13:34:39;22.77;;;10.43;;
20114;SDS011;10218;42.874;25.320;2022-12-18T13:36:53;17.23;;;8.60;;
20114;SDS011;10218;42.874;25.320;2022-12-18T13:39:39;19.07;;;10.03;;
20114;SDS011;10218;42.874;25.320;2022-12-18T13:44:40;36.80;;;20.67;;
20114;SDS011;10218;42.874;25.320;2022-12-18T13:47:27;17.57;;;10.27;;
20114;SDS011;10218;42.874;25.320;2022-12-18T13:50:00;20.93;;;12.30;;
20114;SDS011;10218;42.874;25.320;2022-12-18T13:52:36;37.90;;;19.27;;
20114;SDS011;10218;42.874;25.320;2022-12-18T13:55:07;76.97;;;39.70;;
20114;SDS011;10218;42.874;25.320;2022-12-18T13:57:42;22.90;;;13.37;;
20114;SDS011;10218;42.874;25.320;2022-12-18T14:02:51;19.27;;;11.67;;
20114;SDS011;10218;42.874;25.320;2022-12-18T14:05:25;15.87;;;9.27;;
20114;SDS011;10218;42.874;25.320;2022-12-18T14:08:06;19.57;;;11.53;;
20114;SDS011;10218;42.874;25.320;2022-12-18T14:10:43;16.67;;;9.80;;
20114;SDS011;10218;42.874;25.320;2022-12-18T14:13:32;15.67;;;9.30;;
20114;SDS011;10218;42.874;25.320;2022-12-18T14:16:03;16.83;;;9.73;;
20114;SDS011;10218;42.874;25.320;2022-12-18T14:18:43;17.27;;;9.60;;
20114;SDS011;10218;42.874;25.320;2022-12-18T14:21:17;16.37;;;9.47;;
20114;SDS011;10218;42.874;25.320;2022-12-18T14:24:20;16.07;;;8.90;;
20114;SDS011;10218;42.874;25.320;2022-12-18T14:26:48;19.33;;;10.70;;
20114;SDS011;10218;42.874;25.320;2022-12-18T14:29:24;29.93;;;14.33;;
20114;SDS011;10218;42.874;25.320;2022-12-18T14:32:14;24.07;;;12.27;;
20114;SDS011;10218;42.874;25.320;2022-12-18T14:34:45;24.07;;;13.30;;
20114;SDS011;10218;42.874;25.320;2022-12-18T14:37:21;22.47;;;11.50;;
20114;SDS011;10218;42.874;25.320;2022-12-18T14:39:59;31.27;;;18.80;;
20114;SDS011;10218;42.874;25.320;2022-12-18T14:42:34;25.80;;;13.20;;
20114;SDS011;10218;42.874;25.320;2022-12-18T14:48:12;22.80;;;13.43;;
20114;SDS011;10218;42.874;25.320;2022-12-18T14:50:43;29.83;;;16.00;;
20114;SDS011;10218;42.874;25.320;2022-12-18T14:53:45;28.27;;;16.20;;
20114;SDS011;10218;42.874;25.320;2022-12-18T14:56:27;18.00;;;10.10;;
20114;SDS011;10218;42.874;25.320;2022-12-18T15:01:32;18.27;;;11.23;;
20114;SDS011;10218;42.874;25.320;2022-12-18T15:04:03;15.40;;;9.93;;
20114;SDS011;10218;42.874;25.320;2022-12-18T15:06:33;21.67;;;12.57;;
20114;SDS011;10218;42.874;25.320;2022-12-18T15:09:02;20.40;;;10.83;;
20114;SDS011;10218;42.874;25.320;2022-12-18T15:11:34;19.37;;;9.93;;
20114;SDS011;10218;42.874;25.320;2022-12-18T15:17:02;42.53;;;24.40;;
20114;SDS011;10218;42.874;25.320;2022-12-18T15:19:39;26.97;;;14.87;;
20114;SDS011;10218;42.874;25.320;2022-12-18T15:22:43;19.33;;;11.40;;
20114;SDS011;10218;42.874;25.320;2022-12-18T15:25:03;22.33;;;11.87;;
20114;SDS011;10218;42.874;25.320;2022-12-18T15:27:56;25.33;;;13.87;;
20114;SDS011;10218;42.874;25.320;2022-12-18T15:30:24;21.57;;;12.40;;
20114;SDS011;10218;42.874;25.320;2022-12-18T15:32:52;21.73;;;11.47;;
20114;SDS011;10218;42.874;25.320;2022-12-18T15:35:56;27.70;;;14.43;;
20114;SDS011;10218;42.874;25.320;2022-12-18T15:38:27;19.93;;;12.03;;
20114;SDS011;10218;42.874;25.320;2022-12-18T15:40:55;25.87;;;14.73;;
20114;SDS011;10218;42.874;25.320;2022-12-18T15:43:22;24.27;;;16.00;;
20114;SDS011;10218;42.874;25.320;2022-12-18T15:46:05;28.13;;;15.60;;
20114;SDS011;10218;42.874;25.320;2022-12-18T15:48:40;27.80;;;15.37;;
20114;SDS011;10218;42.874;25.320;2022-12-18T15:51:14;23.67;;;14.33;;
20114;SDS011;10218;42.874;25.320;2022-12-18T15:53:52;30.03;;;18.13;;
20114;SDS011;10218;42.874;25.320;2022-12-18T15:56:25;29.17;;;17.37;;
20114;SDS011;10218;42.874;25.320;2022-12-18T15:59:11;25.97;;;14.57;;
20114;SDS011;10218;42.874;25.320;2022-12-18T16:01:41;26.00;;;14.07;;
20114;SDS011;10218;42.874;25.320;2022-12-18T16:04:15;34.70;;;20.20;;
20114;SDS011;10218;42.874;25.320;2022-12-18T16:06:44;39.47;;;21.57;;
20114;SDS011;10218;42.874;25.320;2022-12-18T16:09:31;43.37;;;23.87;;
20114;SDS011;10218;42.874;25.320;2022-12-18T16:12:01;37.03;;;20.47;;
20114;SDS011;10218;42.874;25.320;2022-12-18T16:14:29;21.13;;;12.13;;
20114;SDS011;10218;42.874;25.320;2022-12-18T16:17:01;24.70;;;12.03;;
20114;SDS011;10218;42.874;25.320;2022-12-18T16:19:31;36.03;;;19.27;;
20114;SDS011;10218;42.874;25.320;2022-12-18T16:21:58;35.00;;;19.23;;
20114;SDS011;10218;42.874;25.320;2022-12-18T16:24:27;30.87;;;17.17;;
20114;SDS011;10218;42.874;25.320;2022-12-18T16:26:56;33.07;;;18.57;;
20114;SDS011;10218;42.874;25.320;2022-12-18T16:29:26;26.67;;;15.37;;
20114;SDS011;10218;42.874;25.320;2022-12-18T16:31:55;29.23;;;15.70;;
20114;SDS011;10218;42.874;25.320;2022-12-18T16:34:27;29.50;;;16.73;;
20114;SDS011;10218;42.874;25.320;2022-12-18T16:36:57;32.60;;;18.13;;
20114;SDS011;10218;42.874;25.320;2022-12-18T16:39:30;34.27;;;18.37;;